sensor_id;sensor_type;location;lat;lon;timestamp;temperature;humidity
52044;DHT22;38053;53.100;6.078;2023-03-13T00:02:01;8.20;99.90
52044;DHT22;38053;53.100;6.078;2023-03-13T00:04:27;8.20;99.90
52044;DHT22;38053;53.100;6.078;2023-03-13T00:06:53;8.20;99.90
52044;DHT22;38053;53.100;6.078;2023-03-13T00:09:19;8.20;99.90
52044;DHT22;38053;53.100;6.078;2023-03-13T00:11:45;8.20;99.90
52044;DHT22;38053;53.100;6.078;2023-03-13T00:14:11;8.20;99.90
52044;DHT22;38053;53.100;6.078;2023-03-13T00:16:37;8.20;99.90
52044;DHT22;38053;53.100;6.078;2023-03-13T00:19:05;8.10;99.90
52044;DHT22;38053;53.100;6.078;2023-03-13T00:21:35;8.20;99.90
52044;DHT22;38053;53.100;6.078;2023-03-13T00:24:02;8.10;99.90
52044;DHT22;38053;53.100;6.078;2023-03-13T00:26:29;8.10;99.90
52044;DHT22;38053;53.100;6.078;2023-03-13T00:28:58;8.10;99.90
52044;DHT22;38053;53.100;6.078;2023-03-13T00:31:28;8.10;99.90
52044;DHT22;38053;53.100;6.078;2023-03-13T00:33:59;8.10;99.90
52044;DHT22;38053;53.100;6.078;2023-03-13T00:36:34;8.10;99.90
52044;DHT22;38053;53.100;6.078;2023-03-13T00:39:00;8.10;99.90
52044;DHT22;38053;53.100;6.078;2023-03-13T00:41:30;8.10;99.90
52044;DHT22;38053;53.100;6.078;2023-03-13T00:44:00;8.10;99.90
52044;DHT22;38053;53.100;6.078;2023-03-13T00:46:27;8.10;99.90
52044;DHT22;38053;53.100;6.078;2023-03-13T00:48:53;8.10;99.90
52044;DHT22;38053;53.100;6.078;2023-03-13T00:51:21;8.10;99.90
52044;DHT22;38053;53.100;6.078;2023-03-13T00:53:55;8.10;99.90
52044;DHT22;38053;53.100;6.078;2023-03-13T00:56:21;8.20;99.90
52044;DHT22;38053;53.100;6.078;2023-03-13T00:58:48;8.10;99.90
52044;DHT22;38053;53.100;6.078;2023-03-13T01:01:19;8.20;99.90
52044;DHT22;38053;53.100;6.078;2023-03-13T01:03:48;8.10;99.90
52044;DHT22;38053;53.100;6.078;2023-03-13T01:06:16;8.10;99.90
52044;DHT22;38053;53.100;6.078;2023-03-13T01:08:43;8.10;99.90
52044;DHT22;38053;53.100;6.078;2023-03-13T01:11:15;8.20;99.90
52044;DHT22;38053;53.100;6.078;2023-03-13T01:13:42;8.10;99.90
52044;DHT22;38053;53.100;6.078;2023-03-13T01:16:16;8.10;99.90
52044;DHT22;38053;53.100;6.078;2023-03-13T01:18:45;8.20;99.90
52044;DHT22;38053;53.100;6.078;2023-03-13T01:21:12;8.20;99.90
52044;DHT22;38053;53.100;6.078;2023-03-13T01:23:39;8.20;99.90
52044;DHT22;38053;53.100;6.078;2023-03-13T01:26:06;8.20;99.90
52044;DHT22;38053;53.100;6.078;2023-03-13T01:28:33;8.20;99.90
52044;DHT22;38053;53.100;6.078;2023-03-13T01:30:59;8.20;99.90
52044;DHT22;38053;53.100;6.078;2023-03-13T01:33:25;8.20;99.90
52044;DHT22;38053;53.100;6.078;2023-03-13T01:35:51;8.20;99.90
52044;DHT22;38053;53.100;6.078;2023-03-13T01:38:19;8.20;99.90
52044;DHT22;38053;53.100;6.078;2023-03-13T01:40:47;8.30;99.90
52044;DHT22;38053;53.100;6.078;2023-03-13T01:51:43;8.30;99.90
52044;DHT22;38053;53.100;6.078;2023-03-13T01:57:05;8.30;99.90
52044;DHT22;38053;53.100;6.078;2023-03-13T01:59:40;8.30;99.90
52044;DHT22;38053;53.100;6.078;2023-03-13T02:02:12;8.30;99.90
52044;DHT22;38053;53.100;6.078;2023-03-13T02:04:44;8.30;99.90
52044;DHT22;38053;53.100;6.078;2023-03-13T02:07:16;8.30;99.90
52044;DHT22;38053;53.100;6.078;2023-03-13T02:09:46;8.30;99.90
52044;DHT22;38053;53.100;6.078;2023-03-13T02:12:28;8.30;99.90
52044;DHT22;38053;53.100;6.078;2023-03-13T02:14:57;8.30;99.90
52044;DHT22;38053;53.100;6.078;2023-03-13T02:17:24;8.30;99.90
52044;DHT22;38053;53.100;6.078;2023-03-13T02:19:55;8.30;99.90
52044;DHT22;38053;53.100;6.078;2023-03-13T02:25:38;8.30;99.90
52044;DHT22;38053;53.100;6.078;2023-03-13T02:28:12;8.30;99.90
52044;DHT22;38053;53.100;6.078;2023-03-13T02:30:41;8.30;99.90
52044;DHT22;38053;53.100;6.078;2023-03-13T02:33:08;8.40;99.90
52044;DHT22;38053;53.100;6.078;2023-03-13T02:35:35;8.40;99.90
52044;DHT22;38053;53.100;6.078;2023-03-13T02:38:06;8.40;99.90
52044;DHT22;38053;53.100;6.078;2023-03-13T02:40:36;8.40;99.90
52044;DHT22;38053;53.100;6.078;2023-03-13T02:43:16;8.50;99.90
52044;DHT22;38053;53.100;6.078;2023-03-13T02:46:18;8.50;99.90
52044;DHT22;38053;53.100;6.078;2023-03-13T02:48:50;8.50;99.90
52044;DHT22;38053;53.100;6.078;2023-03-13T02:51:29;8.50;99.90
52044;DHT22;38053;53.100;6.078;2023-03-13T02:54:00;8.50;99.90
52044;DHT22;38053;53.100;6.078;2023-03-13T02:56:30;8.50;99.90
52044;DHT22;38053;53.100;6.078;2023-03-13T02:58:59;8.50;99.90
52044;DHT22;38053;53.100;6.078;2023-03-13T03:01:25;8.60;99.90
52044;DHT22;38053;53.100;6.078;2023-03-13T03:03:50;8.60;99.90
52044;DHT22;38053;53.100;6.078;2023-03-13T03:06:16;8.60;99.90
52044;DHT22;38053;53.100;6.078;2023-03-13T03:08:42;8.60;99.90
52044;DHT22;38053;53.100;6.078;2023-03-13T03:11:09;8.60;99.90
52044;DHT22;38053;53.100;6.078;2023-03-13T03:13:35;8.60;99.90
52044;DHT22;38053;53.100;6.078;2023-03-13T03:16:09;8.70;99.90
52044;DHT22;38053;53.100;6.078;2023-03-13T03:18:36;8.70;99.90
52044;DHT22;38053;53.100;6.078;2023-03-13T03:21:04;8.70;99.90
52044;DHT22;38053;53.100;6.078;2023-03-13T03:23:35;8.70;99.90
52044;DHT22;38053;53.100;6.078;2023-03-13T03:26:02;8.70;99.90
52044;DHT22;38053;53.100;6.078;2023-03-13T03:28:28;8.70;99.90
52044;DHT22;38053;53.100;6.078;2023-03-13T03:30:56;8.80;99.90
52044;DHT22;38053;53.100;6.078;2023-03-13T03:33:27;8.80;99.90
52044;DHT22;38053;53.100;6.078;2023-03-13T03:36:02;8.80;99.90
52044;DHT22;38053;53.100;6.078;2023-03-13T03:38:29;8.80;99.90
52044;DHT22;38053;53.100;6.078;2023-03-13T03:40:56;8.90;99.90
52044;DHT22;38053;53.100;6.078;2023-03-13T03:43:21;8.90;99.90
52044;DHT22;38053;53.100;6.078;2023-03-13T03:45:47;8.90;99.90
52044;DHT22;38053;53.100;6.078;2023-03-13T03:48:13;8.90;99.90
52044;DHT22;38053;53.100;6.078;2023-03-13T03:50:38;9.00;99.90
52044;DHT22;38053;53.100;6.078;2023-03-13T03:53:04;9.00;99.90
52044;DHT22;38053;53.100;6.078;2023-03-13T03:55:30;9.00;99.90
52044;DHT22;38053;53.100;6.078;2023-03-13T03:57:57;9.00;99.90
52044;DHT22;38053;53.100;6.078;2023-03-13T04:00:26;9.10;99.90
52044;DHT22;38053;53.100;6.078;2023-03-13T04:02:53;9.10;99.90
52044;DHT22;38053;53.100;6.078;2023-03-13T04:05:19;9.10;99.90
52044;DHT22;38053;53.100;6.078;2023-03-13T04:07:44;9.20;99.90
52044;DHT22;38053;53.100;6.078;2023-03-13T04:10:10;9.30;99.90
52044;DHT22;38053;53.100;6.078;2023-03-13T04:12:36;9.40;99.90
52044;DHT22;38053;53.100;6.078;2023-03-13T04:15:03;9.50;99.90
52044;DHT22;38053;53.100;6.078;2023-03-13T04:17:29;9.60;99.90
52044;DHT22;38053;53.100;6.078;2023-03-13T04:19:55;9.70;99.90
52044;DHT22;38053;53.100;6.078;2023-03-13T04:22:21;9.70;99.90
52044;DHT22;38053;53.100;6.078;2023-03-13T04:24:46;9.80;99.90
52044;DHT22;38053;53.100;6.078;2023-03-13T04:27:14;9.90;99.90
52044;DHT22;38053;53.100;6.078;2023-03-13T04:29:40;9.90;99.90
52044;DHT22;38053;53.100;6.078;2023-03-13T04:32:06;9.90;99.90
52044;DHT22;38053;53.100;6.078;2023-03-13T04:34:32;10.00;99.90
52044;DHT22;38053;53.100;6.078;2023-03-13T04:36:57;10.10;99.90
52044;DHT22;38053;53.100;6.078;2023-03-13T04:39:23;10.10;99.90
52044;DHT22;38053;53.100;6.078;2023-03-13T04:41:53;10.10;99.90
52044;DHT22;38053;53.100;6.078;2023-03-13T04:44:20;10.10;99.90
52044;DHT22;38053;53.100;6.078;2023-03-13T04:46:46;10.10;99.90
52044;DHT22;38053;53.100;6.078;2023-03-13T04:49:13;10.20;99.90
52044;DHT22;38053;53.100;6.078;2023-03-13T04:51:40;10.20;99.90
52044;DHT22;38053;53.100;6.078;2023-03-13T04:54:06;10.20;99.90
52044;DHT22;38053;53.100;6.078;2023-03-13T04:56:32;10.20;99.90
52044;DHT22;38053;53.100;6.078;2023-03-13T04:58:57;10.20;99.90
52044;DHT22;38053;53.100;6.078;2023-03-13T05:01:27;10.20;99.90
52044;DHT22;38053;53.100;6.078;2023-03-13T05:03:54;10.20;99.90
52044;DHT22;38053;53.100;6.078;2023-03-13T05:06:19;10.20;99.90
52044;DHT22;38053;53.100;6.078;2023-03-13T05:08:45;10.20;99.90
52044;DHT22;38053;53.100;6.078;2023-03-13T05:11:11;10.20;99.90
52044;DHT22;38053;53.100;6.078;2023-03-13T05:13:37;10.20;99.90
52044;DHT22;38053;53.100;6.078;2023-03-13T05:16:03;10.20;99.90
52044;DHT22;38053;53.100;6.078;2023-03-13T05:18:32;10.20;99.90
52044;DHT22;38053;53.100;6.078;2023-03-13T05:21:02;10.30;99.90
52044;DHT22;38053;53.100;6.078;2023-03-13T05:23:28;10.30;99.90
52044;DHT22;38053;53.100;6.078;2023-03-13T05:25:53;10.40;99.90
52044;DHT22;38053;53.100;6.078;2023-03-13T05:28:20;10.40;99.90
52044;DHT22;38053;53.100;6.078;2023-03-13T05:30:50;10.60;99.90
52044;DHT22;38053;53.100;6.078;2023-03-13T05:33:21;10.70;99.90
52044;DHT22;38053;53.100;6.078;2023-03-13T05:35:53;10.80;99.90
52044;DHT22;38053;53.100;6.078;2023-03-13T05:38:19;10.90;99.90
52044;DHT22;38053;53.100;6.078;2023-03-13T05:40:44;10.90;99.90
52044;DHT22;38053;53.100;6.078;2023-03-13T05:43:10;11.00;99.90
52044;DHT22;38053;53.100;6.078;2023-03-13T05:45:36;11.00;99.90
52044;DHT22;38053;53.100;6.078;2023-03-13T05:48:05;11.00;99.90
52044;DHT22;38053;53.100;6.078;2023-03-13T05:50:34;11.00;99.90
52044;DHT22;38053;53.100;6.078;2023-03-13T05:53:02;11.10;99.90
52044;DHT22;38053;53.100;6.078;2023-03-13T05:55:28;11.20;99.90
52044;DHT22;38053;53.100;6.078;2023-03-13T05:57:54;11.20;99.90
52044;DHT22;38053;53.100;6.078;2023-03-13T06:00:20;11.20;99.90
52044;DHT22;38053;53.100;6.078;2023-03-13T06:02:46;11.20;99.90
52044;DHT22;38053;53.100;6.078;2023-03-13T06:05:13;11.10;99.90
52044;DHT22;38053;53.100;6.078;2023-03-13T06:07:39;11.10;99.90
52044;DHT22;38053;53.100;6.078;2023-03-13T06:10:05;11.10;99.90
52044;DHT22;38053;53.100;6.078;2023-03-13T06:12:50;11.10;99.90
52044;DHT22;38053;53.100;6.078;2023-03-13T06:15:16;11.00;99.90
52044;DHT22;38053;53.100;6.078;2023-03-13T06:17:43;11.00;99.90
52044;DHT22;38053;53.100;6.078;2023-03-13T06:20:11;10.90;99.90
52044;DHT22;38053;53.100;6.078;2023-03-13T06:22:39;10.90;99.90
52044;DHT22;38053;53.100;6.078;2023-03-13T06:25:05;10.80;99.90
52044;DHT22;38053;53.100;6.078;2023-03-13T06:27:31;10.80;99.90
52044;DHT22;38053;53.100;6.078;2023-03-13T06:29:57;10.80;99.90
52044;DHT22;38053;53.100;6.078;2023-03-13T06:32:23;10.70;99.90
52044;DHT22;38053;53.100;6.078;2023-03-13T06:34:50;10.70;99.90
52044;DHT22;38053;53.100;6.078;2023-03-13T06:37:16;10.70;99.90
52044;DHT22;38053;53.100;6.078;2023-03-13T06:39:42;10.80;99.90
52044;DHT22;38053;53.100;6.078;2023-03-13T06:42:09;10.80;99.90
52044;DHT22;38053;53.100;6.078;2023-03-13T06:44:36;10.70;99.90
52044;DHT22;38053;53.100;6.078;2023-03-13T06:47:02;10.80;99.90
52044;DHT22;38053;53.100;6.078;2023-03-13T06:49:28;10.80;99.90
52044;DHT22;38053;53.100;6.078;2023-03-13T06:51:56;10.80;99.90
52044;DHT22;38053;53.100;6.078;2023-03-13T06:54:23;10.80;99.90
52044;DHT22;38053;53.100;6.078;2023-03-13T06:56:50;10.80;99.90
52044;DHT22;38053;53.100;6.078;2023-03-13T06:59:16;10.80;99.90
52044;DHT22;38053;53.100;6.078;2023-03-13T07:01:42;10.80;99.90
52044;DHT22;38053;53.100;6.078;2023-03-13T07:04:11;10.80;99.90
52044;DHT22;38053;53.100;6.078;2023-03-13T07:06:37;10.80;99.90
52044;DHT22;38053;53.100;6.078;2023-03-13T07:09:03;10.90;99.90
52044;DHT22;38053;53.100;6.078;2023-03-13T07:11:30;10.90;99.90
52044;DHT22;38053;53.100;6.078;2023-03-13T07:13:56;10.90;99.90
52044;DHT22;38053;53.100;6.078;2023-03-13T07:16:24;10.90;99.90
52044;DHT22;38053;53.100;6.078;2023-03-13T07:18:50;10.90;99.90
52044;DHT22;38053;53.100;6.078;2023-03-13T07:21:16;10.90;99.90
52044;DHT22;38053;53.100;6.078;2023-03-13T07:23:42;10.90;99.90
52044;DHT22;38053;53.100;6.078;2023-03-13T07:26:11;10.90;99.90
52044;DHT22;38053;53.100;6.078;2023-03-13T07:28:42;10.80;99.90
52044;DHT22;38053;53.100;6.078;2023-03-13T07:31:15;10.80;99.90
52044;DHT22;38053;53.100;6.078;2023-03-13T07:33:41;10.90;99.90
52044;DHT22;38053;53.100;6.078;2023-03-13T07:36:11;10.90;99.90
52044;DHT22;38053;53.100;6.078;2023-03-13T07:38:40;10.90;99.90
52044;DHT22;38053;53.100;6.078;2023-03-13T07:41:10;10.80;99.90
52044;DHT22;38053;53.100;6.078;2023-03-13T07:43:43;10.80;99.90
52044;DHT22;38053;53.100;6.078;2023-03-13T07:46:12;10.80;99.90
52044;DHT22;38053;53.100;6.078;2023-03-13T07:48:40;10.80;99.90
52044;DHT22;38053;53.100;6.078;2023-03-13T07:51:17;10.80;99.90
52044;DHT22;38053;53.100;6.078;2023-03-13T07:53:44;10.80;99.90
52044;DHT22;38053;53.100;6.078;2023-03-13T07:56:14;10.80;99.90
52044;DHT22;38053;53.100;6.078;2023-03-13T07:58:41;10.90;99.90
52044;DHT22;38053;53.100;6.078;2023-03-13T08:01:18;10.90;99.90
52044;DHT22;38053;53.100;6.078;2023-03-13T08:03:44;11.00;99.90
52044;DHT22;38053;53.100;6.078;2023-03-13T08:06:14;11.00;99.90
52044;DHT22;38053;53.100;6.078;2023-03-13T08:08:45;11.10;99.90
52044;DHT22;38053;53.100;6.078;2023-03-13T08:11:22;11.10;99.90
52044;DHT22;38053;53.100;6.078;2023-03-13T08:13:52;11.00;99.90
52044;DHT22;38053;53.100;6.078;2023-03-13T08:16:27;11.00;99.90
52044;DHT22;38053;53.100;6.078;2023-03-13T08:18:56;11.00;99.90
52044;DHT22;38053;53.100;6.078;2023-03-13T08:21:29;11.00;99.90
52044;DHT22;38053;53.100;6.078;2023-03-13T08:24:00;11.00;99.90
52044;DHT22;38053;53.100;6.078;2023-03-13T08:26:30;11.10;99.90
52044;DHT22;38053;53.100;6.078;2023-03-13T08:28:58;11.10;99.90
52044;DHT22;38053;53.100;6.078;2023-03-13T08:31:36;11.20;99.90
52044;DHT22;38053;53.100;6.078;2023-03-13T08:34:02;11.20;99.90
52044;DHT22;38053;53.100;6.078;2023-03-13T08:36:31;11.20;99.90
52044;DHT22;38053;53.100;6.078;2023-03-13T08:39:00;11.40;99.90
52044;DHT22;38053;53.100;6.078;2023-03-13T08:41:28;11.40;99.90
52044;DHT22;38053;53.100;6.078;2023-03-13T08:43:55;11.40;99.90
52044;DHT22;38053;53.100;6.078;2023-03-13T08:46:21;11.50;99.90
52044;DHT22;38053;53.100;6.078;2023-03-13T08:48:48;11.60;99.90
52044;DHT22;38053;53.100;6.078;2023-03-13T08:51:17;11.70;99.90
52044;DHT22;38053;53.100;6.078;2023-03-13T08:53:43;11.70;99.90
52044;DHT22;38053;53.100;6.078;2023-03-13T08:56:12;11.80;99.90
52044;DHT22;38053;53.100;6.078;2023-03-13T08:58:38;12.00;99.90
52044;DHT22;38053;53.100;6.078;2023-03-13T09:01:06;12.10;99.90
52044;DHT22;38053;53.100;6.078;2023-03-13T09:03:32;12.10;99.90
52044;DHT22;38053;53.100;6.078;2023-03-13T09:05:59;12.10;99.90
52044;DHT22;38053;53.100;6.078;2023-03-13T09:08:25;12.10;99.90
52044;DHT22;38053;53.100;6.078;2023-03-13T09:11:03;12.00;99.90
52044;DHT22;38053;53.100;6.078;2023-03-13T09:13:31;12.00;99.90
52044;DHT22;38053;53.100;6.078;2023-03-13T09:15:59;12.10;99.90
52044;DHT22;38053;53.100;6.078;2023-03-13T09:18:28;12.10;99.90
52044;DHT22;38053;53.100;6.078;2023-03-13T09:20:57;12.10;99.90
52044;DHT22;38053;53.100;6.078;2023-03-13T09:23:24;12.10;99.90
52044;DHT22;38053;53.100;6.078;2023-03-13T09:25:55;12.00;99.90
52044;DHT22;38053;53.100;6.078;2023-03-13T09:28:23;11.90;99.90
52044;DHT22;38053;53.100;6.078;2023-03-13T09:30:49;11.80;99.90
52044;DHT22;38053;53.100;6.078;2023-03-13T09:33:18;11.70;99.90
52044;DHT22;38053;53.100;6.078;2023-03-13T09:35:51;11.80;99.90
52044;DHT22;38053;53.100;6.078;2023-03-13T09:38:20;12.00;99.90
52044;DHT22;38053;53.100;6.078;2023-03-13T09:40:48;12.10;99.90
52044;DHT22;38053;53.100;6.078;2023-03-13T09:49:04;12.50;99.90
52044;DHT22;38053;53.100;6.078;2023-03-13T09:51:40;12.50;99.90
52044;DHT22;38053;53.100;6.078;2023-03-13T09:54:31;12.60;99.90
52044;DHT22;38053;53.100;6.078;2023-03-13T09:57:02;12.70;99.90
52044;DHT22;38053;53.100;6.078;2023-03-13T10:02:29;12.80;99.90
52044;DHT22;38053;53.100;6.078;2023-03-13T10:05:26;12.90;99.90
52044;DHT22;38053;53.100;6.078;2023-03-13T10:11:03;13.10;99.90
52044;DHT22;38053;53.100;6.078;2023-03-13T10:16:27;13.40;99.90
52044;DHT22;38053;53.100;6.078;2023-03-13T10:18:56;13.50;99.90
52044;DHT22;38053;53.100;6.078;2023-03-13T10:21:25;13.60;99.90
52044;DHT22;38053;53.100;6.078;2023-03-13T10:23:58;13.70;99.90
52044;DHT22;38053;53.100;6.078;2023-03-13T10:26:31;13.70;99.90
52044;DHT22;38053;53.100;6.078;2023-03-13T10:29:15;13.80;99.90
52044;DHT22;38053;53.100;6.078;2023-03-13T10:31:59;13.80;99.90
52044;DHT22;38053;53.100;6.078;2023-03-13T10:34:28;14.00;99.90
52044;DHT22;38053;53.100;6.078;2023-03-13T10:36:59;14.10;99.90
52044;DHT22;38053;53.100;6.078;2023-03-13T10:39:28;14.10;99.90
52044;DHT22;38053;53.100;6.078;2023-03-13T10:42:19;14.20;99.90
52044;DHT22;38053;53.100;6.078;2023-03-13T10:44:45;14.20;99.90
52044;DHT22;38053;53.100;6.078;2023-03-13T10:47:14;14.30;99.90
52044;DHT22;38053;53.100;6.078;2023-03-13T10:49:51;14.30;99.90
52044;DHT22;38053;53.100;6.078;2023-03-13T10:52:42;14.30;99.90
52044;DHT22;38053;53.100;6.078;2023-03-13T10:55:22;14.40;99.90
52044;DHT22;38053;53.100;6.078;2023-03-13T10:58:02;14.50;99.90
52044;DHT22;38053;53.100;6.078;2023-03-13T11:00:38;14.50;99.90
52044;DHT22;38053;53.100;6.078;2023-03-13T11:03:18;14.70;99.90
52044;DHT22;38053;53.100;6.078;2023-03-13T11:06:00;14.70;99.90
52044;DHT22;38053;53.100;6.078;2023-03-13T11:08:33;14.70;99.90
52044;DHT22;38053;53.100;6.078;2023-03-13T11:11:01;14.70;99.90
52044;DHT22;38053;53.100;6.078;2023-03-13T11:13:41;14.70;99.90
52044;DHT22;38053;53.100;6.078;2023-03-13T11:16:20;14.80;99.90
52044;DHT22;38053;53.100;6.078;2023-03-13T11:19:14;15.00;99.90
52044;DHT22;38053;53.100;6.078;2023-03-13T11:24:48;15.20;99.90
52044;DHT22;38053;53.100;6.078;2023-03-13T11:33:02;15.50;99.90
52044;DHT22;38053;53.100;6.078;2023-03-13T11:35:42;15.40;99.90
52044;DHT22;38053;53.100;6.078;2023-03-13T11:38:23;15.30;99.90
52044;DHT22;38053;53.100;6.078;2023-03-13T11:46:24;15.00;99.90
52044;DHT22;38053;53.100;6.078;2023-03-13T11:57:09;14.80;99.90
52044;DHT22;38053;53.100;6.078;2023-03-13T11:59:54;14.80;99.90
52044;DHT22;38053;53.100;6.078;2023-03-13T12:02:46;14.80;99.90
52044;DHT22;38053;53.100;6.078;2023-03-13T12:05:17;15.00;99.90
52044;DHT22;38053;53.100;6.078;2023-03-13T12:08:04;15.10;99.90
52044;DHT22;38053;53.100;6.078;2023-03-13T12:10:37;15.20;99.90
52044;DHT22;38053;53.100;6.078;2023-03-13T12:13:18;15.30;99.90
52044;DHT22;38053;53.100;6.078;2023-03-13T12:15:59;15.30;99.90
52044;DHT22;38053;53.100;6.078;2023-03-13T12:18:38;15.70;99.90
52044;DHT22;38053;53.100;6.078;2023-03-13T12:21:16;15.40;99.90
52044;DHT22;38053;53.100;6.078;2023-03-13T12:25:04;15.30;99.90
52044;DHT22;38053;53.100;6.078;2023-03-13T12:27:17;15.50;99.90
52044;DHT22;38053;53.100;6.078;2023-03-13T12:29:58;15.40;99.90
52044;DHT22;38053;53.100;6.078;2023-03-13T12:35:18;15.30;99.90
52044;DHT22;38053;53.100;6.078;2023-03-13T12:38:05;15.10;99.90
52044;DHT22;38053;53.100;6.078;2023-03-13T12:43:33;15.40;99.90
52044;DHT22;38053;53.100;6.078;2023-03-13T12:48:51;16.00;99.90
52044;DHT22;38053;53.100;6.078;2023-03-13T12:59:53;17.00;99.90
52044;DHT22;38053;53.100;6.078;2023-03-13T13:02:23;16.90;99.90
52044;DHT22;38053;53.100;6.078;2023-03-13T13:04:54;17.10;99.90
52044;DHT22;38053;53.100;6.078;2023-03-13T13:07:31;17.30;99.90
52044;DHT22;38053;53.100;6.078;2023-03-13T13:12:45;17.60;99.90
52044;DHT22;38053;53.100;6.078;2023-03-13T13:15:27;17.60;99.90
52044;DHT22;38053;53.100;6.078;2023-03-13T13:17:57;17.50;99.90
52044;DHT22;38053;53.100;6.078;2023-03-13T13:25:54;17.30;99.90
52044;DHT22;38053;53.100;6.078;2023-03-13T13:28:32;17.40;99.90
52044;DHT22;38053;53.100;6.078;2023-03-13T13:30:59;17.30;99.90
52044;DHT22;38053;53.100;6.078;2023-03-13T13:33:36;17.00;99.90
52044;DHT22;38053;53.100;6.078;2023-03-13T13:38:56;16.30;99.90
52044;DHT22;38053;53.100;6.078;2023-03-13T13:41:25;16.00;99.90
52044;DHT22;38053;53.100;6.078;2023-03-13T13:44:22;15.90;99.90
52044;DHT22;38053;53.100;6.078;2023-03-13T13:46:48;15.80;99.90
52044;DHT22;38053;53.100;6.078;2023-03-13T13:49:17;15.80;99.90
52044;DHT22;38053;53.100;6.078;2023-03-13T13:54:52;15.90;99.90
52044;DHT22;38053;53.100;6.078;2023-03-13T13:57:30;16.00;99.90
52044;DHT22;38053;53.100;6.078;2023-03-13T14:02:54;16.00;99.90
52044;DHT22;38053;53.100;6.078;2023-03-13T14:10:37;15.90;99.90
52044;DHT22;38053;53.100;6.078;2023-03-13T14:13:16;16.00;99.90
52044;DHT22;38053;53.100;6.078;2023-03-13T14:15:48;16.00;99.90
52044;DHT22;38053;53.100;6.078;2023-03-13T14:18:18;15.80;99.90
52044;DHT22;38053;53.100;6.078;2023-03-13T14:21:06;16.00;99.90
52044;DHT22;38053;53.100;6.078;2023-03-13T14:23:42;15.70;99.90
52044;DHT22;38053;53.100;6.078;2023-03-13T14:26:27;15.40;99.90
52044;DHT22;38053;53.100;6.078;2023-03-13T14:29:00;15.40;99.90
52044;DHT22;38053;53.100;6.078;2023-03-13T14:31:32;15.70;99.90
52044;DHT22;38053;53.100;6.078;2023-03-13T14:34:04;15.90;99.90
52044;DHT22;38053;53.100;6.078;2023-03-13T14:36:45;16.10;99.90
52044;DHT22;38053;53.100;6.078;2023-03-13T14:42:09;16.50;99.90
52044;DHT22;38053;53.100;6.078;2023-03-13T14:44:38;16.30;99.90
52044;DHT22;38053;53.100;6.078;2023-03-13T14:47:24;15.90;99.90
52044;DHT22;38053;53.100;6.078;2023-03-13T14:50:02;15.70;99.90
52044;DHT22;38053;53.100;6.078;2023-03-13T14:52:32;15.80;99.90
52044;DHT22;38053;53.100;6.078;2023-03-13T14:55:25;15.90;99.90
52044;DHT22;38053;53.100;6.078;2023-03-13T15:00:41;16.70;99.90
52044;DHT22;38053;53.100;6.078;2023-03-13T15:05:43;16.70;99.90
52044;DHT22;38053;53.100;6.078;2023-03-13T15:08:17;16.80;99.90
52044;DHT22;38053;53.100;6.078;2023-03-13T15:10:43;16.60;99.90
52044;DHT22;38053;53.100;6.078;2023-03-13T15:13:22;16.40;99.90
52044;DHT22;38053;53.100;6.078;2023-03-13T15:15:49;16.40;99.90
52044;DHT22;38053;53.100;6.078;2023-03-13T15:20:57;16.60;99.90
52044;DHT22;38053;53.100;6.078;2023-03-13T15:23:23;16.60;99.90
52044;DHT22;38053;53.100;6.078;2023-03-13T15:25:49;16.50;99.90
52044;DHT22;38053;53.100;6.078;2023-03-13T15:28:18;16.30;99.90
52044;DHT22;38053;53.100;6.078;2023-03-13T15:30:46;16.40;99.90
52044;DHT22;38053;53.100;6.078;2023-03-13T15:33:17;16.20;99.90
52044;DHT22;38053;53.100;6.078;2023-03-13T15:35:44;16.30;99.90
52044;DHT22;38053;53.100;6.078;2023-03-13T15:38:13;16.50;99.90
52044;DHT22;38053;53.100;6.078;2023-03-13T15:40:40;16.60;99.90
52044;DHT22;38053;53.100;6.078;2023-03-13T15:43:06;16.50;99.90
52044;DHT22;38053;53.100;6.078;2023-03-13T15:45:32;16.10;99.90
52044;DHT22;38053;53.100;6.078;2023-03-13T15:47:59;16.00;99.90
52044;DHT22;38053;53.100;6.078;2023-03-13T15:50:29;16.10;99.90
52044;DHT22;38053;53.100;6.078;2023-03-13T15:52:59;15.80;99.90
52044;DHT22;38053;53.100;6.078;2023-03-13T15:55:29;15.60;99.90
52044;DHT22;38053;53.100;6.078;2023-03-13T15:57:55;15.60;99.90
52044;DHT22;38053;53.100;6.078;2023-03-13T16:00:23;15.50;99.90
52044;DHT22;38053;53.100;6.078;2023-03-13T16:02:49;15.50;99.90
52044;DHT22;38053;53.100;6.078;2023-03-13T16:05:16;15.30;99.90
52044;DHT22;38053;53.100;6.078;2023-03-13T16:07:41;15.10;99.90
52044;DHT22;38053;53.100;6.078;2023-03-13T16:10:34;14.90;99.90
52044;DHT22;38053;53.100;6.078;2023-03-13T16:12:59;14.80;99.90
52044;DHT22;38053;53.100;6.078;2023-03-13T16:15:25;14.60;99.90
52044;DHT22;38053;53.100;6.078;2023-03-13T16:17:51;14.20;99.90
52044;DHT22;38053;53.100;6.078;2023-03-13T16:20:19;14.00;99.90
52044;DHT22;38053;53.100;6.078;2023-03-13T16:22:49;13.80;99.90
52044;DHT22;38053;53.100;6.078;2023-03-13T16:25:15;13.70;99.90
52044;DHT22;38053;53.100;6.078;2023-03-13T16:27:41;13.60;99.90
52044;DHT22;38053;53.100;6.078;2023-03-13T16:30:17;13.40;99.90
52044;DHT22;38053;53.100;6.078;2023-03-13T16:32:43;13.40;99.90
52044;DHT22;38053;53.100;6.078;2023-03-13T16:35:09;13.30;99.90
52044;DHT22;38053;53.100;6.078;2023-03-13T16:37:35;13.20;99.90
52044;DHT22;38053;53.100;6.078;2023-03-13T16:40:01;13.10;99.90
52044;DHT22;38053;53.100;6.078;2023-03-13T16:42:28;13.10;99.90
52044;DHT22;38053;53.100;6.078;2023-03-13T16:44:54;13.00;99.90
52044;DHT22;38053;53.100;6.078;2023-03-13T16:47:24;12.90;99.90
52044;DHT22;38053;53.100;6.078;2023-03-13T16:49:52;12.90;99.90
52044;DHT22;38053;53.100;6.078;2023-03-13T16:52:18;12.80;99.90
52044;DHT22;38053;53.100;6.078;2023-03-13T16:54:44;12.70;99.90
52044;DHT22;38053;53.100;6.078;2023-03-13T16:57:16;12.70;99.90
52044;DHT22;38053;53.100;6.078;2023-03-13T16:59:43;12.60;99.90
52044;DHT22;38053;53.100;6.078;2023-03-13T17:02:16;12.50;99.90
52044;DHT22;38053;53.100;6.078;2023-03-13T17:04:42;12.50;99.90
52044;DHT22;38053;53.100;6.078;2023-03-13T17:07:20;12.40;99.90
52044;DHT22;38053;53.100;6.078;2023-03-13T17:09:48;12.30;99.90
52044;DHT22;38053;53.100;6.078;2023-03-13T17:12:15;12.30;99.90
52044;DHT22;38053;53.100;6.078;2023-03-13T17:14:42;12.20;99.90
52044;DHT22;38053;53.100;6.078;2023-03-13T17:17:16;12.10;99.90
52044;DHT22;38053;53.100;6.078;2023-03-13T17:19:42;12.10;99.90
52044;DHT22;38053;53.100;6.078;2023-03-13T17:22:14;12.10;99.90
52044;DHT22;38053;53.100;6.078;2023-03-13T17:24:41;12.10;99.90
52044;DHT22;38053;53.100;6.078;2023-03-13T17:27:16;12.10;99.90
52044;DHT22;38053;53.100;6.078;2023-03-13T17:29:43;12.10;99.90
52044;DHT22;38053;53.100;6.078;2023-03-13T17:32:13;12.10;99.90
52044;DHT22;38053;53.100;6.078;2023-03-13T17:34:50;12.00;99.90
52044;DHT22;38053;53.100;6.078;2023-03-13T17:37:20;12.00;99.90